Time;durP1;ratioP1;P1;durP2;ratioP2;P2;SDS_P1;SDS_P2;PMS_P1;PMS_P2;Temp;Humidity;BMP_temperature;BMP_pressure;BME280_temperature;BME280_humidity;BME280_pressure;Samples;Min_cycle;Max_cycle;Signal;HPM_P1;HPM_P2
2021/07/06 00:00:20;;;;;;;;;;;27.30;54.00;;;;;;5129489;28;19928;-58
2021/07/06 00:02:49;;;;;;;;;;;27.30;54.00;;;;;;5129850;27;19927;-58
2021/07/06 00:05:17;;;;;;;;;;;27.30;54.00;;;;;;5133556;27;19927;-58
2021/07/06 00:07:46;;;;;;;;;;;27.30;54.00;;;;;;5136053;27;19930;-58
2021/07/06 00:10:15;;;;;;;;;;;27.30;54.10;;;;;;5124845;27;19931;-58
2021/07/06 00:12:42;;;;;;;;;;;27.30;54.10;;;;;;5119381;27;20033;-58
2021/07/06 00:15:10;;;;;;;;;;;27.20;54.10;;;;;;5128379;27;19923;-58
2021/07/06 00:17:37;;;;;;;;;;;27.30;54.20;;;;;;5134900;27;19927;-58
2021/07/06 00:20:06;;;;;;;;;;;27.20;54.10;;;;;;5112885;28;19976;-58
2021/07/06 00:22:35;;;;;;;;;;;27.20;54.10;;;;;;5121890;27;20383;-58
2021/07/06 00:25:03;;;;;;;;;;;27.20;54.10;;;;;;5134141;27;19968;-58
2021/07/06 00:27:30;;;;;;;;;;;27.20;54.10;;;;;;5130101;27;20394;-58
2021/07/06 00:29:57;;;;;;;;;;;27.20;54.10;;;;;;5119899;27;19932;-58
2021/07/06 00:32:24;;;;;;;;;;;27.20;54.20;;;;;;5119087;27;19924;-58
2021/07/06 00:34:51;;;;;;;;;;;27.20;54.20;;;;;;5133491;27;20325;-58
2021/07/06 00:37:18;;;;;;;;;;;27.20;54.20;;;;;;5132288;27;19924;-58
2021/07/06 00:39:45;;;;;;;;;;;27.20;54.20;;;;;;5117525;27;19936;-58
2021/07/06 00:42:12;;;;;;;;;;;27.20;54.20;;;;;;5135030;27;19953;-58
2021/07/06 00:44:40;;;;;;;;;;;27.20;54.20;;;;;;5134838;27;19953;-58
2021/07/06 00:47:07;;;;;;;;;;;27.20;54.20;;;;;;5135753;27;20142;-59
2021/07/06 00:49:34;;;;;;;;;;;27.20;54.30;;;;;;5133003;27;19934;-58
2021/07/06 00:52:01;;;;;;;;;;;27.20;54.30;;;;;;5133998;27;19923;-58
2021/07/06 00:54:28;;;;;;;;;;;27.20;54.30;;;;;;5134987;27;20001;-58
2021/07/06 00:56:55;;;;;;;;;;;27.20;54.30;;;;;;5133982;27;20341;-58
2021/07/06 00:59:22;;;;;;;;;;;27.20;54.30;;;;;;5135162;27;19995;-58
2021/07/06 01:01:50;;;;;;;;;;;27.20;54.30;;;;;;5133828;27;19923;-58
2021/07/06 01:04:17;;;;;;;;;;;27.20;54.30;;;;;;5122680;27;19976;-58
2021/07/06 01:06:44;;;;;;;;;;;27.20;54.30;;;;;;5129398;27;19923;-58
2021/07/06 01:09:11;;;;;;;;;;;27.20;54.30;;;;;;5135158;27;20094;-58
2021/07/06 01:11:38;;;;;;;;;;;27.20;54.30;;;;;;5134857;27;19924;-58
2021/07/06 01:14:05;;;;;;;;;;;27.20;54.30;;;;;;5132088;27;19969;-58
2021/07/06 01:16:32;;;;;;;;;;;27.20;54.30;;;;;;5132949;27;19924;-58
2021/07/06 01:18:59;;;;;;;;;;;27.20;54.30;;;;;;5133977;27;19923;-58
2021/07/06 01:21:26;;;;;;;;;;;27.20;54.40;;;;;;5132119;27;20011;-58
2021/07/06 01:23:53;;;;;;;;;;;27.20;54.40;;;;;;5134814;27;20294;-58
2021/07/06 01:26:20;;;;;;;;;;;27.20;54.40;;;;;;5133196;27;19977;-58
2021/07/06 01:28:48;;;;;;;;;;;27.20;54.40;;;;;;5134157;27;20271;-59
2021/07/06 01:31:15;;;;;;;;;;;27.20;54.40;;;;;;5132934;27;20343;-59
2021/07/06 01:33:43;;;;;;;;;;;27.10;54.30;;;;;;5133617;27;19924;-58
2021/07/06 01:36:09;;;;;;;;;;;27.10;54.40;;;;;;5125831;27;20007;-58
2021/07/06 01:38:40;;;;;;;;;;;27.10;54.40;;;;;;5135252;27;19927;-58
2021/07/06 01:41:07;;;;;;;;;;;27.10;54.40;;;;;;5134136;27;20010;-58
2021/07/06 01:43:34;;;;;;;;;;;27.10;54.40;;;;;;5135828;27;19935;-58
2021/07/06 01:46:03;;;;;;;;;;;27.10;54.40;;;;;;5134015;27;19923;-58
2021/07/06 01:48:30;;;;;;;;;;;27.10;54.40;;;;;;5132906;27;19923;-58
2021/07/06 01:50:58;;;;;;;;;;;27.10;54.40;;;;;;5116884;27;19928;-58
2021/07/06 01:53:25;;;;;;;;;;;27.10;54.40;;;;;;5131412;27;19928;-58
2021/07/06 01:55:53;;;;;;;;;;;27.10;54.40;;;;;;5133608;27;20357;-58
2021/07/06 01:58:21;;;;;;;;;;;27.10;54.40;;;;;;5132672;27;19968;-58
2021/07/06 02:00:50;;;;;;;;;;;27.10;54.40;;;;;;5120824;27;19980;-58
2021/07/06 02:03:17;;;;;;;;;;;27.10;54.40;;;;;;5126772;27;19927;-58
2021/07/06 02:05:45;;;;;;;;;;;27.10;54.40;;;;;;5132868;27;19923;-58
2021/07/06 02:08:19;;;;;;;;;;;27.10;54.40;;;;;;5134700;27;19931;-58
2021/07/06 02:10:48;;;;;;;;;;;27.10;54.40;;;;;;5133895;27;19923;-58
2021/07/06 02:13:17;;;;;;;;;;;27.10;54.40;;;;;;5131426;27;20010;-58
2021/07/06 02:15:44;;;;;;;;;;;27.10;54.40;;;;;;5124507;27;19966;-58
2021/07/06 02:18:22;;;;;;;;;;;27.10;54.40;;;;;;5124901;27;19969;-58
2021/07/06 02:20:51;;;;;;;;;;;27.10;54.40;;;;;;5130934;27;19923;-58
2021/07/06 02:23:19;;;;;;;;;;;27.10;54.40;;;;;;5133123;27;19989;-58
2021/07/06 02:25:47;;;;;;;;;;;27.10;54.40;;;;;;5132457;27;19968;-58
2021/07/06 02:28:14;;;;;;;;;;;27.10;54.40;;;;;;5131946;27;20396;-58
2021/07/06 02:30:41;;;;;;;;;;;27.10;54.40;;;;;;5131101;27;20341;-58
2021/07/06 02:33:08;;;;;;;;;;;27.10;54.40;;;;;;5131153;27;21562;-58
2021/07/06 02:35:36;;;;;;;;;;;27.10;54.50;;;;;;5114313;27;19923;-58
2021/07/06 02:38:03;;;;;;;;;;;27.10;54.50;;;;;;5133089;27;19927;-58
2021/07/06 02:40:30;;;;;;;;;;;27.10;54.50;;;;;;5130659;27;19931;-58
2021/07/06 02:42:58;;;;;;;;;;;27.10;54.50;;;;;;5114741;27;19928;-58
2021/07/06 02:45:26;;;;;;;;;;;27.10;54.50;;;;;;5131989;27;19928;-58
2021/07/06 02:47:53;;;;;;;;;;;27.10;54.50;;;;;;5133018;27;19923;-58
2021/07/06 02:50:21;;;;;;;;;;;27.10;54.50;;;;;;5116835;27;19924;-58
2021/07/06 02:52:48;;;;;;;;;;;27.10;54.50;;;;;;5133075;27;19927;-56
2021/07/06 02:55:16;;;;;;;;;;;27.10;54.50;;;;;;5133649;27;19934;-57
2021/07/06 02:57:43;;;;;;;;;;;27.10;54.50;;;;;;5117311;27;20416;-57
2021/07/06 03:00:15;;;;;;;;;;;27.10;54.50;;;;;;5129523;27;19923;-57
2021/07/06 03:02:46;;;;;;;;;;;27.00;54.50;;;;;;5131257;27;19923;-58
2021/07/06 03:05:14;;;;;;;;;;;27.10;54.50;;;;;;5130591;27;19974;-58
2021/07/06 03:07:41;;;;;;;;;;;27.10;54.50;;;;;;5132526;27;19923;-58
2021/07/06 03:10:10;;;;;;;;;;;27.10;54.50;;;;;;5130032;27;19924;-57
2021/07/06 03:12:39;;;;;;;;;;;27.10;54.50;;;;;;5132159;27;20516;-58
2021/07/06 03:15:06;;;;;;;;;;;27.00;54.50;;;;;;5113067;27;19972;-58
2021/07/06 03:17:33;;;;;;;;;;;27.00;54.50;;;;;;5131009;27;19927;-58
2021/07/06 03:20:02;;;;;;;;;;;27.10;54.50;;;;;;5113307;27;19924;-58
2021/07/06 03:22:29;;;;;;;;;;;27.00;54.50;;;;;;5130213;27;20409;-58
2021/07/06 03:24:56;;;;;;;;;;;27.00;54.50;;;;;;5130720;27;19923;-58
2021/07/06 03:27:24;;;;;;;;;;;27.10;54.50;;;;;;5129621;28;19924;-58
2021/07/06 03:29:51;;;;;;;;;;;27.00;54.50;;;;;;5131232;28;19927;-58
2021/07/06 03:32:18;;;;;;;;;;;27.00;54.40;;;;;;5131022;28;20324;-57
2021/07/06 03:34:46;;;;;;;;;;;27.00;54.40;;;;;;5131181;28;20367;-58
2021/07/06 03:37:13;;;;;;;;;;;27.00;54.50;;;;;;5116630;27;20415;-58
2021/07/06 03:39:40;;;;;;;;;;;27.10;54.50;;;;;;5134550;27;20265;-58
2021/07/06 03:42:08;;;;;;;;;;;27.00;54.40;;;;;;5136370;27;20379;-57
2021/07/06 03:44:36;;;;;;;;;;;27.10;54.50;;;;;;5119266;27;19976;-58
2021/07/06 03:47:03;;;;;;;;;;;27.00;54.40;;;;;;5136827;27;19923;-57
2021/07/06 03:49:31;;;;;;;;;;;27.00;54.40;;;;;;5136746;27;20010;-57
2021/07/06 03:51:59;;;;;;;;;;;27.00;54.40;;;;;;5135449;27;19976;-57
2021/07/06 03:54:26;;;;;;;;;;;27.10;54.50;;;;;;5118561;27;19976;-57
2021/07/06 03:56:52;;;;;;;;;;;27.10;54.50;;;;;;5133597;27;20343;-58
2021/07/06 03:59:21;;;;;;;;;;;27.10;54.40;;;;;;5119174;27;19977;-58
2021/07/06 04:01:49;;;;;;;;;;;27.10;54.40;;;;;;5133609;27;19977;-58
2021/07/06 04:04:16;;;;;;;;;;;27.10;54.40;;;;;;5135743;27;19924;-58
2021/07/06 04:06:43;;;;;;;;;;;27.10;54.40;;;;;;5133416;27;19976;-58
2021/07/06 04:09:10;;;;;;;;;;;27.10;54.40;;;;;;5134284;27;20325;-58
2021/07/06 04:11:37;;;;;;;;;;;27.10;54.40;;;;;;5133384;27;19977;-58
2021/07/06 04:14:05;;;;;;;;;;;27.10;54.40;;;;;;5134938;27;20303;-58
2021/07/06 04:16:32;;;;;;;;;;;27.10;54.40;;;;;;5135763;27;19923;-58
2021/07/06 04:18:59;;;;;;;;;;;27.10;54.30;;;;;;5134247;27;20267;-58
2021/07/06 04:21:26;;;;;;;;;;;27.10;54.30;;;;;;5119071;27;20010;-57
2021/07/06 04:23:53;;;;;;;;;;;27.10;54.20;;;;;;5118681;27;19962;-58
2021/07/06 04:26:20;;;;;;;;;;;27.10;54.20;;;;;;5132972;27;19980;-57
2021/07/06 04:28:46;;;;;;;;;;;27.10;54.10;;;;;;5118612;27;19968;-58
2021/07/06 04:31:13;;;;;;;;;;;27.10;54.10;;;;;;5134317;27;19932;-58
2021/07/06 04:33:40;;;;;;;;;;;27.20;54.20;;;;;;5134214;27;20298;-57
2021/07/06 04:36:07;;;;;;;;;;;27.20;54.20;;;;;;5129303;27;19927;-58
2021/07/06 04:38:34;;;;;;;;;;;27.20;54.10;;;;;;5135413;27;19928;-58
2021/07/06 04:41:01;;;;;;;;;;;27.20;54.10;;;;;;5135429;27;19972;-58
2021/07/06 04:43:28;;;;;;;;;;;27.30;54.00;;;;;;5136810;27;19942;-58
2021/07/06 04:45:55;;;;;;;;;;;27.30;53.90;;;;;;5117987;27;20302;-59
2021/07/06 04:48:22;;;;;;;;;;;27.30;53.80;;;;;;5118635;27;19924;-58
2021/07/06 04:50:49;;;;;;;;;;;27.40;53.80;;;;;;5100218;28;19972;-58
2021/07/06 04:53:18;;;;;;;;;;;27.40;53.70;;;;;;5131792;27;19962;-58
2021/07/06 04:55:45;;;;;;;;;;;27.40;53.60;;;;;;5134782;27;19923;-58
2021/07/06 04:58:12;;;;;;;;;;;27.50;53.60;;;;;;5115491;27;19931;-58
2021/07/06 05:00:41;;;;;;;;;;;27.50;53.40;;;;;;5132870;27;21326;-59
2021/07/06 05:03:10;;;;;;;;;;;27.50;53.40;;;;;;5133617;27;19932;-58
2021/07/06 05:05:39;;;;;;;;;;;27.60;53.40;;;;;;5135691;27;19923;-58
2021/07/06 05:08:06;;;;;;;;;;;27.60;53.30;;;;;;5134595;27;19927;-58
2021/07/06 05:10:34;;;;;;;;;;;27.60;53.20;;;;;;5132321;27;19969;-58
2021/07/06 05:13:01;;;;;;;;;;;27.70;53.20;;;;;;5133371;27;19972;-58
2021/07/06 05:15:29;;;;;;;;;;;27.70;53.20;;;;;;5114654;27;20013;-59
2021/07/06 05:17:56;;;;;;;;;;;27.70;53.10;;;;;;5135089;27;20340;-59
2021/07/06 05:20:23;;;;;;;;;;;27.70;53.10;;;;;;5133418;27;19927;-59
2021/07/06 05:22:50;;;;;;;;;;;27.80;53.10;;;;;;5134196;27;19930;-59
2021/07/06 05:25:17;;;;;;;;;;;27.80;53.00;;;;;;5131826;27;19924;-59
2021/07/06 05:27:44;;;;;;;;;;;27.80;53.00;;;;;;5135370;27;19923;-59
2021/07/06 05:30:12;;;;;;;;;;;27.80;53.00;;;;;;5136027;27;19923;-59
2021/07/06 05:32:39;;;;;;;;;;;27.80;52.90;;;;;;5133405;27;19949;-59
2021/07/06 05:35:08;;;;;;;;;;;27.80;52.90;;;;;;5133591;27;19938;-59
2021/07/06 05:37:36;;;;;;;;;;;27.80;52.90;;;;;;5096876;28;20492;-59
2021/07/06 05:40:04;;;;;;;;;;;27.90;52.90;;;;;;5122980;27;19931;-59
2021/07/06 05:42:35;;;;;;;;;;;27.90;52.90;;;;;;5116907;27;19924;-59
2021/07/06 05:45:03;;;;;;;;;;;27.90;52.80;;;;;;5116371;27;19924;-59
2021/07/06 05:47:34;;;;;;;;;;;27.90;52.80;;;;;;5116189;27;19923;-59
2021/07/06 05:50:10;;;;;;;;;;;27.90;52.80;;;;;;5133144;27;20017;-58
2021/07/06 05:52:38;;;;;;;;;;;27.90;52.80;;;;;;5133329;27;20333;-59
2021/07/06 05:55:06;;;;;;;;;;;27.90;52.80;;;;;;5134392;27;19924;-59
2021/07/06 05:57:33;;;;;;;;;;;27.90;52.80;;;;;;5133973;27;19923;-59
2021/07/06 06:00:03;;;;;;;;;;;27.90;52.80;;;;;;5131800;27;19923;-59
2021/07/06 06:02:30;;;;;;;;;;;27.90;52.80;;;;;;5131899;27;19931;-58
2021/07/06 06:04:56;;;;;;;;;;;27.90;52.80;;;;;;5133829;27;19930;-58
2021/07/06 06:07:24;;;;;;;;;;;27.90;52.80;;;;;;5132539;27;19977;-59
2021/07/06 06:09:51;;;;;;;;;;;27.90;52.80;;;;;;5133374;27;19923;-58
2021/07/06 06:12:18;;;;;;;;;;;27.90;52.80;;;;;;5133145;27;19927;-58
2021/07/06 06:14:45;;;;;;;;;;;27.90;52.80;;;;;;5132433;27;19924;-58
2021/07/06 06:17:12;;;;;;;;;;;27.90;52.80;;;;;;5132347;27;19924;-58
2021/07/06 06:19:40;;;;;;;;;;;27.90;52.90;;;;;;5133482;27;19923;-59
2021/07/06 06:22:07;;;;;;;;;;;27.90;52.80;;;;;;5130978;27;19974;-59
2021/07/06 06:24:34;;;;;;;;;;;27.80;52.80;;;;;;5126635;27;19972;-58
2021/07/06 06:27:01;;;;;;;;;;;27.90;52.90;;;;;;5121449;27;20006;-58
2021/07/06 06:29:29;;;;;;;;;;;27.80;52.80;;;;;;5133022;27;19961;-58
2021/07/06 06:31:56;;;;;;;;;;;27.90;52.90;;;;;;5132840;27;19923;-58
2021/07/06 06:34:23;;;;;;;;;;;27.80;52.90;;;;;;5132939;27;19976;-58
2021/07/06 06:36:50;;;;;;;;;;;27.80;52.90;;;;;;5130798;27;20530;-58
2021/07/06 06:39:18;;;;;;;;;;;27.80;53.00;;;;;;5116146;27;19931;-58
2021/07/06 06:41:45;;;;;;;;;;;27.80;53.00;;;;;;5115786;27;19930;-58
2021/07/06 06:44:11;;;;;;;;;;;27.80;53.00;;;;;;5133363;27;19923;-58
2021/07/06 06:46:38;;;;;;;;;;;27.80;53.00;;;;;;5133312;27;20402;-57
2021/07/06 06:49:05;;;;;;;;;;;27.80;53.00;;;;;;5132122;27;19961;-58
2021/07/06 06:51:32;;;;;;;;;;;27.80;53.10;;;;;;5132964;27;19923;-58
2021/07/06 06:54:01;;;;;;;;;;;27.80;53.10;;;;;;5132376;27;19929;-58
2021/07/06 06:56:28;;;;;;;;;;;27.80;53.70;;;;;;5130143;27;19966;-58
2021/07/06 06:58:55;;;;;;;;;;;27.80;53.10;;;;;;5130086;27;20343;-57
2021/07/06 07:01:23;;;;;;;;;;;27.80;53.10;;;;;;5129844;27;19923;-58
2021/07/06 07:03:50;;;;;;;;;;;27.80;53.10;;;;;;5131496;27;19923;-58
2021/07/06 07:06:17;;;;;;;;;;;27.80;53.10;;;;;;5132246;27;20303;-58
2021/07/06 07:08:44;;;;;;;;;;;27.80;53.10;;;;;;5130762;27;19971;-58
2021/07/06 07:11:11;;;;;;;;;;;27.80;53.10;;;;;;5129981;27;19963;-58
2021/07/06 07:13:38;;;;;;;;;;;27.80;53.20;;;;;;5129143;27;19923;-58
2021/07/06 07:16:05;;;;;;;;;;;27.80;53.20;;;;;;5132654;27;19928;-58
2021/07/06 07:18:32;;;;;;;;;;;27.80;53.20;;;;;;5133783;27;20035;-58
2021/07/06 07:20:59;;;;;;;;;;;27.80;53.20;;;;;;5108179;28;19928;-59
2021/07/06 07:23:26;;;;;;;;;;;27.80;53.20;;;;;;5118491;27;20321;-59
2021/07/06 07:25:53;;;;;;;;;;;27.80;53.20;;;;;;5128026;27;19969;-59
2021/07/06 07:28:20;;;;;;;;;;;27.80;53.20;;;;;;5097829;28;19923;-59
2021/07/06 07:30:47;;;;;;;;;;;27.80;53.20;;;;;;5131957;28;19972;-58
2021/07/06 07:33:14;;;;;;;;;;;27.80;53.20;;;;;;5131488;28;20309;-58
2021/07/06 07:35:41;;;;;;;;;;;27.80;53.20;;;;;;5114914;28;20375;-58
2021/07/06 07:38:08;;;;;;;;;;;27.80;53.20;;;;;;5132687;28;19923;-58
2021/07/06 07:40:35;;;;;;;;;;;27.80;53.20;;;;;;5131985;28;19968;-59
2021/07/06 07:43:06;;;;;;;;;;;27.80;53.30;;;;;;5133862;28;19923;-58
2021/07/06 07:45:36;;;;;;;;;;;27.80;53.30;;;;;;5131550;28;20248;-58
2021/07/06 07:48:04;;;;;;;;;;;27.80;53.30;;;;;;5131292;28;19923;-58
2021/07/06 07:50:32;;;;;;;;;;;27.80;53.30;;;;;;5131627;28;19923;-59
2021/07/06 07:52:59;;;;;;;;;;;27.80;53.30;;;;;;5130613;28;20034;-58
2021/07/06 07:55:26;;;;;;;;;;;27.90;53.40;;;;;;5131830;28;19924;-58
2021/07/06 07:57:53;;;;;;;;;;;27.90;53.40;;;;;;5130546;28;19924;-59
2021/07/06 08:00:20;;;;;;;;;;;27.90;53.40;;;;;;5129751;28;19928;-59
2021/07/06 08:02:47;;;;;;;;;;;27.90;53.50;;;;;;5131171;28;19923;-59
2021/07/06 08:05:15;;;;;;;;;;;27.90;53.40;;;;;;5129590;28;19930;-58
2021/07/06 08:07:42;;;;;;;;;;;27.90;53.40;;;;;;5132129;28;19975;-58
2021/07/06 08:10:10;;;;;;;;;;;27.90;53.40;;;;;;5115015;28;19923;-58
2021/07/06 08:12:37;;;;;;;;;;;27.90;53.50;;;;;;5123230;28;19954;-58
2021/07/06 08:15:05;;;;;;;;;;;27.90;53.50;;;;;;5121499;28;19930;-58
2021/07/06 08:17:32;;;;;;;;;;;27.90;53.50;;;;;;5124990;28;19963;-58
2021/07/06 08:20:01;;;;;;;;;;;27.90;53.50;;;;;;5113944;28;19934;-58
2021/07/06 08:22:28;;;;;;;;;;;27.90;53.50;;;;;;5121446;28;20371;-58
2021/07/06 08:24:55;;;;;;;;;;;27.90;53.50;;;;;;5131353;27;19927;-58
2021/07/06 08:27:22;;;;;;;;;;;27.90;53.50;;;;;;5133750;27;19947;-58
2021/07/06 08:29:49;;;;;;;;;;;27.90;53.50;;;;;;5132607;27;19976;-58
2021/07/06 08:32:16;;;;;;;;;;;27.90;53.50;;;;;;5135718;27;19977;-58
2021/07/06 08:34:44;;;;;;;;;;;27.90;53.50;;;;;;5134415;27;19959;-59
2021/07/06 08:37:11;;;;;;;;;;;27.90;53.50;;;;;;5118587;27;19971;-59
2021/07/06 08:39:38;;;;;;;;;;;27.90;53.50;;;;;;5134638;27;19923;-59
2021/07/06 08:42:09;;;;;;;;;;;27.90;53.50;;;;;;5135731;27;19927;-59
2021/07/06 08:44:37;;;;;;;;;;;27.90;53.50;;;;;;5134703;27;19930;-59
2021/07/06 08:47:04;;;;;;;;;;;27.90;53.50;;;;;;5134369;27;19923;-59
2021/07/06 08:49:32;;;;;;;;;;;27.90;53.50;;;;;;5134329;27;19988;-59
2021/07/06 08:52:00;;;;;;;;;;;27.90;53.50;;;;;;5133208;27;19934;-59
2021/07/06 08:54:27;;;;;;;;;;;27.90;53.50;;;;;;5134020;27;19923;-58
2021/07/06 08:56:54;;;;;;;;;;;27.90;53.50;;;;;;5134415;27;19984;-59
2021/07/06 08:59:30;;;;;;;;;;;27.90;53.50;;;;;;5134228;27;19930;-59
2021/07/06 09:01:57;;;;;;;;;;;27.90;53.50;;;;;;5133308;27;20291;-59
2021/07/06 09:04:41;;;;;;;;;;;27.90;53.50;;;;;;5135285;27;19924;-59
2021/07/06 09:07:08;;;;;;;;;;;27.90;53.50;;;;;;5120068;27;20015;-59
2021/07/06 09:09:35;;;;;;;;;;;28.00;53.60;;;;;;5119163;27;20444;-59
2021/07/06 09:12:02;;;;;;;;;;;28.00;53.60;;;;;;5130710;27;19927;-59
2021/07/06 09:14:30;;;;;;;;;;;28.00;53.60;;;;;;5106138;28;19949;-59
2021/07/06 09:17:09;;;;;;;;;;;28.00;53.60;;;;;;5128155;27;20324;-59
2021/07/06 09:19:37;;;;;;;;;;;28.00;53.60;;;;;;5122764;27;19927;-59
2021/07/06 09:22:11;;;;;;;;;;;28.00;53.60;;;;;;5127710;27;19984;-59
2021/07/06 09:24:39;;;;;;;;;;;28.00;53.60;;;;;;5135503;27;19971;-59
2021/07/06 09:27:21;;;;;;;;;;;28.00;53.60;;;;;;5134507;27;19927;-59
2021/07/06 09:30:01;;;;;;;;;;;28.00;53.60;;;;;;5133335;27;19923;-59
2021/07/06 09:32:28;;;;;;;;;;;28.00;53.60;;;;;;5134327;27;19924;-59
2021/07/06 09:34:55;;;;;;;;;;;28.00;53.60;;;;;;5134460;27;19924;-59
2021/07/06 09:37:22;;;;;;;;;;;28.00;53.60;;;;;;5127299;27;19973;-58
2021/07/06 09:39:49;;;;;;;;;;;28.00;53.60;;;;;;5132799;27;20436;-59
2021/07/06 09:42:16;;;;;;;;;;;28.00;53.60;;;;;;5132982;27;19996;-59
2021/07/06 09:44:43;;;;;;;;;;;28.00;53.60;;;;;;5135196;27;19949;-58
2021/07/06 09:47:11;;;;;;;;;;;28.00;53.60;;;;;;5133231;27;19923;-58
2021/07/06 09:49:44;;;;;;;;;;;28.00;53.60;;;;;;5132675;27;19927;-59
2021/07/06 09:52:11;;;;;;;;;;;28.00;53.60;;;;;;5131448;27;19977;-59
2021/07/06 09:54:42;;;;;;;;;;;28.00;53.60;;;;;;5131079;27;20439;-59
2021/07/06 09:57:38;;;;;;;;;;;28.00;53.60;;;;;;5132703;27;19927;-59
2021/07/06 10:00:10;;;;;;;;;;;28.00;53.60;;;;;;5132824;27;19976;-59
2021/07/06 10:02:38;;;;;;;;;;;28.00;53.60;;;;;;5133740;27;20474;-59
2021/07/06 10:05:08;;;;;;;;;;;28.00;53.60;;;;;;5129510;27;19923;-59
2021/07/06 10:07:36;;;;;;;;;;;28.00;53.60;;;;;;5119688;27;20335;-59
2021/07/06 10:10:08;;;;;;;;;;;28.00;53.60;;;;;;5131197;27;19931;-59
2021/07/06 10:12:36;;;;;;;;;;;28.00;53.60;;;;;;5130501;27;19931;-59
2021/07/06 10:15:05;;;;;;;;;;;28.00;53.50;;;;;;5117304;27;19972;-59
2021/07/06 10:17:44;;;;;;;;;;;28.00;53.50;;;;;;5132448;27;20451;-59
2021/07/06 10:20:12;;;;;;;;;;;28.10;53.50;;;;;;5130882;27;19977;-59
2021/07/06 10:22:39;;;;;;;;;;;28.10;53.50;;;;;;5132293;27;19924;-59
2021/07/06 10:25:10;;;;;;;;;;;28.10;53.60;;;;;;5133319;27;19923;-59
2021/07/06 10:27:38;;;;;;;;;;;28.10;53.50;;;;;;5133575;27;19924;-59
2021/07/06 10:30:16;;;;;;;;;;;28.10;53.60;;;;;;5114310;28;20268;-58
2021/07/06 10:32:44;;;;;;;;;;;28.10;53.50;;;;;;5117152;27;20389;-59
2021/07/06 10:35:13;;;;;;;;;;;28.10;53.50;;;;;;5133708;27;19923;-59
2021/07/06 10:37:41;;;;;;;;;;;28.10;53.60;;;;;;5114950;27;19972;-59
2021/07/06 10:40:14;;;;;;;;;;;28.10;53.60;;;;;;5131857;27;19976;-59
2021/07/06 10:42:41;;;;;;;;;;;28.10;53.50;;;;;;5131884;27;19928;-59
2021/07/06 10:45:17;;;;;;;;;;;28.10;53.50;;;;;;5132309;27;20006;-59
2021/07/06 10:47:46;;;;;;;;;;;28.10;53.50;;;;;;5131792;27;19976;-59
2021/07/06 10:50:37;;;;;;;;;;;28.10;53.50;;;;;;5116056;27;19930;-59
2021/07/06 10:53:13;;;;;;;;;;;28.10;53.50;;;;;;5107719;27;19931;-59
2021/07/06 10:55:40;;;;;;;;;;;28.10;53.50;;;;;;5113709;27;19973;-59
2021/07/06 10:58:07;;;;;;;;;;;28.10;53.50;;;;;;5114832;27;20264;-59
2021/07/06 11:00:40;;;;;;;;;;;28.10;53.50;;;;;;5116050;27;19959;-59
2021/07/06 11:03:17;;;;;;;;;;;28.10;53.50;;;;;;5134049;27;19946;-59
2021/07/06 11:05:45;;;;;;;;;;;28.10;53.50;;;;;;5131601;27;19924;-57
2021/07/06 11:08:30;;;;;;;;;;;28.10;53.50;;;;;;5131939;27;19924;-58
2021/07/06 11:10:57;;;;;;;;;;;28.10;53.50;;;;;;5131688;27;19924;-58
2021/07/06 11:13:27;;;;;;;;;;;28.10;53.50;;;;;;5133660;27;19924;-58
2021/07/06 11:15:54;;;;;;;;;;;28.10;53.50;;;;;;5131098;27;19931;-58
2021/07/06 11:18:32;;;;;;;;;;;28.10;53.50;;;;;;5132756;27;19923;-59
2021/07/06 11:20:59;;;;;;;;;;;28.10;53.50;;;;;;5114443;27;19973;-59
2021/07/06 11:23:33;;;;;;;;;;;28.10;53.50;;;;;;5115306;27;19976;-59
2021/07/06 11:26:06;;;;;;;;;;;28.10;53.50;;;;;;5129744;27;19924;-59
2021/07/06 11:28:49;;;;;;;;;;;28.10;53.50;;;;;;5132153;27;19923;-59
2021/07/06 11:31:18;;;;;;;;;;;28.10;53.50;;;;;;5130300;28;19954;-58
2021/07/06 11:33:45;;;;;;;;;;;28.10;53.50;;;;;;5132436;28;20006;-59
2021/07/06 11:36:22;;;;;;;;;;;28.10;53.50;;;;;;5121932;28;19924;-58
2021/07/06 11:38:50;;;;;;;;;;;28.10;53.50;;;;;;5130421;28;19986;-59
2021/07/06 11:41:18;;;;;;;;;;;28.10;53.40;;;;;;5130545;28;19973;-59
2021/07/06 11:43:45;;;;;;;;;;;28.20;53.40;;;;;;5131165;28;19973;-59
2021/07/06 11:46:14;;;;;;;;;;;28.20;53.40;;;;;;5132488;28;19923;-59
2021/07/06 11:48:41;;;;;;;;;;;28.20;53.40;;;;;;5132178;28;19934;-59
2021/07/06 11:51:12;;;;;;;;;;;28.20;53.40;;;;;;5120581;28;20010;-59
2021/07/06 11:53:41;;;;;;;;;;;28.20;53.40;;;;;;5114221;28;19931;-59
2021/07/06 11:56:09;;;;;;;;;;;28.20;53.40;;;;;;5124363;28;19923;-59
2021/07/06 11:58:36;;;;;;;;;;;28.20;53.30;;;;;;5121205;28;20019;-59
2021/07/06 12:01:04;;;;;;;;;;;28.20;53.30;;;;;;5127927;27;19923;-59
2021/07/06 12:03:36;;;;;;;;;;;28.20;53.40;;;;;;5134958;27;19931;-59
2021/07/06 12:06:08;;;;;;;;;;;28.20;53.30;;;;;;5127506;27;19931;-59
2021/07/06 12:08:36;;;;;;;;;;;28.20;53.30;;;;;;5123865;27;20336;-59
2021/07/06 12:11:05;;;;;;;;;;;28.20;53.30;;;;;;5135772;27;19923;-59
2021/07/06 12:13:35;;;;;;;;;;;28.20;53.20;;;;;;5134903;27;19923;-59
2021/07/06 12:16:04;;;;;;;;;;;28.20;53.20;;;;;;5136174;27;20260;-59
2021/07/06 12:18:32;;;;;;;;;;;28.20;53.20;;;;;;5136359;27;19980;-59
2021/07/06 12:21:04;;;;;;;;;;;28.20;53.20;;;;;;5134825;27;19923;-57
2021/07/06 12:23:31;;;;;;;;;;;28.20;53.20;;;;;;5135495;27;19980;-58
2021/07/06 12:25:58;;;;;;;;;;;28.20;53.20;;;;;;5134661;27;19928;-58
2021/07/06 12:28:26;;;;;;;;;;;28.20;53.20;;;;;;5134282;27;19969;-58
2021/07/06 12:31:12;;;;;;;;;;;28.20;53.20;;;;;;5135454;27;19976;-58
2021/07/06 12:33:40;;;;;;;;;;;28.20;53.20;;;;;;5135929;27;19923;-57
2021/07/06 12:36:07;;;;;;;;;;;28.20;53.20;;;;;;5129257;27;19931;-57
2021/07/06 12:38:34;;;;;;;;;;;28.20;53.10;;;;;;5135475;27;20367;-57
2021/07/06 12:41:14;;;;;;;;;;;28.20;53.10;;;;;;5135834;27;19986;-58
2021/07/06 12:43:41;;;;;;;;;;;28.20;53.10;;;;;;5117196;27;19924;-58
2021/07/06 12:46:09;;;;;;;;;;;28.20;53.10;;;;;;5117567;27;19972;-58
2021/07/06 12:48:36;;;;;;;;;;;28.20;53.10;;;;;;5135136;27;19931;-58
2021/07/06 12:51:09;;;;;;;;;;;28.20;53.10;;;;;;5134729;27;19968;-58
2021/07/06 12:53:37;;;;;;;;;;;28.20;53.10;;;;;;5116857;27;19931;-57
2021/07/06 12:56:25;;;;;;;;;;;28.20;53.10;;;;;;5136504;27;20267;-58
2021/07/06 12:58:52;;;;;;;;;;;28.20;53.10;;;;;;5135986;27;19923;-57
2021/07/06 13:01:32;;;;;;;;;;;28.20;53.10;;;;;;5135792;27;19927;-58
2021/07/06 13:04:00;;;;;;;;;;;28.20;53.10;;;;;;5116351;27;20273;-58
2021/07/06 13:06:27;;;;;;;;;;;28.20;53.00;;;;;;5135024;27;20379;-58
2021/07/06 13:09:09;;;;;;;;;;;28.20;53.00;;;;;;5134087;27;20014;-59
2021/07/06 13:11:36;;;;;;;;;;;28.20;53.00;;;;;;5115353;27;19924;-59
2021/07/06 13:14:16;;;;;;;;;;;28.20;53.00;;;;;;5136111;27;19972;-58
2021/07/06 13:16:44;;;;;;;;;;;28.20;53.00;;;;;;5116739;27;20379;-58
2021/07/06 13:19:37;;;;;;;;;;;28.20;52.90;;;;;;5135857;27;20347;-58
2021/07/06 13:22:16;;;;;;;;;;;28.20;52.90;;;;;;5112571;27;20015;-59
2021/07/06 13:24:43;;;;;;;;;;;28.20;52.90;;;;;;5117313;27;19924;-58
2021/07/06 13:27:10;;;;;;;;;;;28.20;52.90;;;;;;5115309;28;19973;-58
2021/07/06 13:29:37;;;;;;;;;;;28.20;52.90;;;;;;5134438;27;19930;-58
2021/07/06 13:32:04;;;;;;;;;;;28.20;52.90;;;;;;5118559;27;20324;-58
2021/07/06 13:34:31;;;;;;;;;;;28.20;52.90;;;;;;5133749;27;19927;-58
2021/07/06 13:37:16;;;;;;;;;;;28.30;52.90;;;;;;5117416;27;19924;-58
2021/07/06 13:39:43;;;;;;;;;;;28.30;52.90;;;;;;5133625;27;20320;-59
2021/07/06 13:42:10;;;;;;;;;;;28.30;52.80;;;;;;5117321;27;19924;-59
2021/07/06 13:44:37;;;;;;;;;;;28.30;52.90;;;;;;5133452;27;20286;-58
2021/07/06 13:47:06;;;;;;;;;;;28.30;52.80;;;;;;5118750;27;20383;-58
2021/07/06 13:49:34;;;;;;;;;;;28.30;52.80;;;;;;5130899;27;20316;-58
2021/07/06 13:52:02;;;;;;;;;;;28.30;52.80;;;;;;5133287;27;20306;-59
2021/07/06 13:54:31;;;;;;;;;;;28.30;52.80;;;;;;5135023;27;20332;-59
2021/07/06 13:56:59;;;;;;;;;;;28.30;52.80;;;;;;5131694;27;19930;-59
2021/07/06 13:59:37;;;;;;;;;;;28.30;52.80;;;;;;5131804;27;19924;-59
2021/07/06 14:02:04;;;;;;;;;;;28.30;52.80;;;;;;5132450;27;19924;-59
2021/07/06 14:04:31;;;;;;;;;;;28.30;52.80;;;;;;5131242;27;19927;-59
2021/07/06 14:06:58;;;;;;;;;;;28.30;52.80;;;;;;5132652;27;20371;-59
2021/07/06 14:09:25;;;;;;;;;;;28.30;52.70;;;;;;5131093;27;20466;-58
2021/07/06 14:11:53;;;;;;;;;;;28.30;52.80;;;;;;5132521;27;20019;-59
2021/07/06 14:14:20;;;;;;;;;;;28.20;52.70;;;;;;5134721;27;20354;-59
2021/07/06 14:16:47;;;;;;;;;;;28.30;52.70;;;;;;5134713;27;19927;-59
2021/07/06 14:19:14;;;;;;;;;;;28.30;52.70;;;;;;5132611;27;19930;-59
2021/07/06 14:21:41;;;;;;;;;;;28.30;52.70;;;;;;5131952;27;19927;-59
2021/07/06 14:24:08;;;;;;;;;;;28.30;52.70;;;;;;5131989;27;19983;-59